createdAt,value
2023-02-05T00:05:09.746Z,1025.72
2023-02-05T00:06:09.669Z,1025.68
2023-02-05T00:07:09.659Z,1025.68
2023-02-05T00:08:09.673Z,1025.65
2023-02-05T00:09:09.638Z,1025.72
2023-02-05T00:10:09.640Z,1025.68
2023-02-05T00:11:09.623Z,1025.69
2023-02-05T00:12:09.604Z,1025.67
2023-02-05T00:13:09.587Z,1025.71
2023-02-05T00:14:09.578Z,1025.66
2023-02-05T00:15:09.600Z,1025.64
2023-02-05T00:16:14.708Z,1025.63
2023-02-05T00:17:09.552Z,1025.68
2023-02-05T00:18:09.540Z,1025.73
2023-02-05T00:19:09.526Z,1025.75
2023-02-05T00:20:09.520Z,1025.65
2023-02-05T00:21:09.544Z,1025.70
2023-02-05T00:22:09.493Z,1025.62
2023-02-05T00:23:09.476Z,1025.68
2023-02-05T00:24:09.467Z,1025.66
2023-02-05T00:25:09.455Z,1025.71
2023-02-05T00:26:09.458Z,1025.66
2023-02-05T00:27:14.453Z,1025.66
2023-02-05T00:28:09.502Z,1025.68
2023-02-05T00:29:09.416Z,1025.64
2023-02-05T00:30:09.412Z,1025.59
2023-02-05T00:31:09.548Z,1025.60
2023-02-05T00:32:09.396Z,1025.61
2023-02-05T00:33:09.372Z,1025.56
2023-02-05T00:34:09.360Z,1025.50
2023-02-05T00:35:09.343Z,1025.51
2023-02-05T00:36:10.921Z,1025.50
2023-02-05T00:37:09.359Z,1025.51
2023-02-05T00:38:14.337Z,1025.51
2023-02-05T00:39:09.304Z,1025.51
2023-02-05T00:40:09.309Z,1025.52
2023-02-05T00:41:09.454Z,1025.54
2023-02-05T00:42:09.275Z,1025.55
2023-02-05T00:43:09.256Z,1025.57
2023-02-05T00:44:09.251Z,1025.56
2023-02-05T00:45:09.243Z,1025.55
2023-02-05T00:46:09.331Z,1025.61
2023-02-05T00:47:09.249Z,1025.58
2023-02-05T00:48:09.222Z,1025.53
2023-02-05T00:49:14.217Z,1025.54
2023-02-05T00:50:09.239Z,1025.57
2023-02-05T00:51:09.180Z,1025.53
2023-02-05T00:52:09.250Z,1025.51
2023-02-05T00:53:09.182Z,1025.56
2023-02-05T00:54:09.140Z,1025.56
2023-02-05T00:55:09.130Z,1025.54
2023-02-05T00:56:09.135Z,1025.60
2023-02-05T00:57:09.102Z,1025.60
2023-02-05T00:58:09.091Z,1025.56
2023-02-05T00:59:09.094Z,1025.53
2023-02-05T01:00:14.099Z,1025.49
2023-02-05T01:01:09.118Z,1025.51
2023-02-05T01:02:09.118Z,1025.52
2023-02-05T01:03:09.046Z,1025.51
2023-02-05T01:04:09.030Z,1025.49
2023-02-05T01:05:09.018Z,1025.43
2023-02-05T01:06:09.032Z,1025.46
2023-02-05T01:07:08.993Z,1025.46
2023-02-05T01:08:08.991Z,1025.42
2023-02-05T01:09:08.997Z,1025.40
2023-02-05T01:10:08.978Z,1025.44
2023-02-05T01:11:14.005Z,1025.46
2023-02-05T01:12:08.954Z,1025.40
2023-02-05T01:13:08.928Z,1025.27
2023-02-05T01:14:08.935Z,1025.34
2023-02-05T01:15:08.915Z,1025.24
2023-02-05T01:16:08.956Z,1025.25
2023-02-05T01:17:08.898Z,1025.17
2023-02-05T01:18:08.877Z,1025.15
2023-02-05T01:19:08.872Z,1025.16
2023-02-05T01:20:08.856Z,1025.22
2023-02-05T01:21:08.841Z,1025.30
2023-02-05T01:22:13.866Z,1025.28
2023-02-05T01:23:08.836Z,1025.27
2023-02-05T01:24:08.808Z,1025.22
2023-02-05T01:25:08.816Z,1025.23
2023-02-05T01:26:08.789Z,1025.28
2023-02-05T01:27:08.795Z,1025.26
2023-02-05T01:28:08.844Z,1025.23
2023-02-05T01:29:08.763Z,1025.23
2023-02-05T01:30:08.744Z,1025.13
2023-02-05T01:31:08.816Z,1025.13
2023-02-05T01:32:08.732Z,1025.08
2023-02-05T01:33:13.733Z,1025.12
2023-02-05T01:34:08.706Z,1025.18
2023-02-05T01:35:08.687Z,1025.05
2023-02-05T01:36:08.677Z,1024.99
2023-02-05T01:37:08.674Z,1025.00
2023-02-05T01:38:08.652Z,1024.98
2023-02-05T01:39:08.647Z,1024.95
2023-02-05T01:40:08.638Z,1024.97
2023-02-05T01:41:08.636Z,1024.89
2023-02-05T01:42:08.618Z,1024.93
2023-02-05T01:43:08.593Z,1024.89
2023-02-05T01:44:13.610Z,1024.86
2023-02-05T01:45:08.571Z,1024.86
2023-02-05T01:46:08.636Z,1024.90
2023-02-05T01:47:08.566Z,1024.87
2023-02-05T01:48:08.541Z,1024.92
2023-02-05T01:49:08.527Z,1024.87
2023-02-05T01:50:08.533Z,1024.88
2023-02-05T01:51:08.503Z,1024.87
2023-02-05T01:52:08.510Z,1024.87
2023-02-05T01:53:08.483Z,1024.83
2023-02-05T01:54:08.471Z,1024.84
2023-02-05T01:55:13.489Z,1024.71
2023-02-05T01:56:08.451Z,1024.71
2023-02-05T01:57:08.488Z,1024.72
2023-02-05T01:58:08.426Z,1024.79
2023-02-05T01:59:09.472Z,1024.78
2023-02-05T02:00:08.423Z,1024.83
2023-02-05T02:01:08.392Z,1024.81
2023-02-05T02:02:08.391Z,1024.86
2023-02-05T02:03:08.436Z,1024.88
2023-02-05T02:04:08.361Z,1024.94
2023-02-05T02:05:08.408Z,1024.92
2023-02-05T02:06:13.360Z,1024.93
2023-02-05T02:07:09.855Z,1024.98
2023-02-05T02:08:08.333Z,1024.89
2023-02-05T02:09:08.321Z,1024.83
2023-02-05T02:10:08.298Z,1024.76
2023-02-05T02:11:08.282Z,1024.74
2023-02-05T02:12:08.323Z,1024.70
2023-02-05T02:13:08.290Z,1024.74
2023-02-05T02:14:08.259Z,1024.72
2023-02-05T02:15:08.237Z,1024.72
2023-02-05T02:16:08.307Z,1024.67
2023-02-05T02:17:13.237Z,1024.63
2023-02-05T02:18:08.219Z,1024.61
2023-02-05T02:19:08.206Z,1024.61
2023-02-05T02:20:08.188Z,1024.61
2023-02-05T02:21:08.173Z,1024.55
2023-02-05T02:22:08.168Z,1024.57
2023-02-05T02:23:08.228Z,1024.57
2023-02-05T02:24:08.147Z,1024.54
2023-02-05T02:25:08.133Z,1024.56
2023-02-05T02:26:08.125Z,1024.54
2023-02-05T02:27:08.107Z,1024.53
2023-02-05T02:28:13.235Z,1024.60
2023-02-05T02:29:08.082Z,1024.55
2023-02-05T02:30:08.072Z,1024.55
2023-02-05T02:31:08.092Z,1024.57
2023-02-05T02:32:08.053Z,1024.54
2023-02-05T02:33:08.051Z,1024.55
2023-02-05T02:34:08.033Z,1024.57
2023-02-05T02:35:08.016Z,1024.54
2023-02-05T02:36:08.008Z,1024.56
2023-02-05T02:37:07.996Z,1024.55
2023-02-05T02:38:08.003Z,1024.49
2023-02-05T02:39:12.996Z,1024.57
2023-02-05T02:40:07.974Z,1024.52
2023-02-05T02:41:07.952Z,1024.55
2023-02-05T02:42:07.941Z,1024.53
2023-02-05T02:43:07.939Z,1024.56
2023-02-05T02:44:07.969Z,1024.59
2023-02-05T02:45:07.913Z,1024.59
2023-02-05T02:46:07.897Z,1024.57
2023-02-05T02:47:07.889Z,1024.54
2023-02-05T02:48:07.881Z,1024.49
2023-02-05T02:49:07.875Z,1024.49
2023-02-05T02:50:12.901Z,1024.46
2023-02-05T02:51:07.850Z,1024.44
2023-02-05T02:52:07.836Z,1024.41
2023-02-05T02:53:07.826Z,1024.43
2023-02-05T02:54:07.833Z,1024.31
2023-02-05T02:55:07.830Z,1024.29
2023-02-05T02:56:07.798Z,1024.30
2023-02-05T02:57:07.781Z,1024.31
2023-02-05T02:58:07.769Z,1024.30
2023-02-05T02:59:07.812Z,1024.36
2023-02-05T03:00:07.770Z,1024.24
2023-02-05T03:01:12.836Z,1024.24
2023-02-05T03:02:07.731Z,1024.22
2023-02-05T03:03:07.722Z,1024.23
2023-02-05T03:04:07.762Z,1024.19
2023-02-05T03:05:07.694Z,1024.19
2023-02-05T03:06:07.690Z,1024.20
2023-02-05T03:07:07.675Z,1024.26
2023-02-05T03:08:07.664Z,1024.24
2023-02-05T03:09:07.666Z,1024.30
2023-02-05T03:10:07.639Z,1024.29
2023-02-05T03:11:07.632Z,1024.24
2023-02-05T03:12:12.653Z,1024.21
2023-02-05T03:13:07.608Z,1024.16
2023-02-05T03:14:07.616Z,1024.19
2023-02-05T03:15:07.611Z,1024.13
2023-02-05T03:16:07.601Z,1024.20
2023-02-05T03:17:07.572Z,1024.18
2023-02-05T03:18:07.577Z,1024.11
2023-02-05T03:19:07.537Z,1024.09
2023-02-05T03:20:07.541Z,1023.99
2023-02-05T03:21:07.531Z,1024.01
2023-02-05T03:22:07.568Z,1024.02
2023-02-05T03:23:12.526Z,1023.95
2023-02-05T03:24:07.484Z,1023.97
2023-02-05T03:25:07.490Z,1023.99
2023-02-05T03:26:07.460Z,1023.98
2023-02-05T03:27:07.448Z,1023.92
2023-02-05T03:28:07.487Z,1023.94
2023-02-05T03:29:07.461Z,1023.92
2023-02-05T03:30:07.437Z,1023.96
2023-02-05T03:31:07.550Z,1023.94
2023-02-05T03:32:07.395Z,1023.94
2023-02-05T03:33:07.416Z,1023.98
2023-02-05T03:34:12.424Z,1023.96
2023-02-05T03:35:07.378Z,1023.91
2023-02-05T03:36:07.349Z,1023.89
2023-02-05T03:37:07.337Z,1023.86
2023-02-05T03:38:07.336Z,1023.81
2023-02-05T03:39:07.318Z,1023.80
2023-02-05T03:40:07.320Z,1023.86
2023-02-05T03:41:07.302Z,1023.84
2023-02-05T03:42:07.290Z,1023.88
2023-02-05T03:43:07.277Z,1023.94
2023-02-05T03:44:07.265Z,1024.03
2023-02-05T03:45:12.291Z,1024.00
2023-02-05T03:46:07.238Z,1023.99
2023-02-05T03:47:07.239Z,1023.99
2023-02-05T03:48:07.236Z,1024.00
2023-02-05T03:49:07.207Z,1024.07
2023-02-05T03:50:07.237Z,1024.08
2023-02-05T03:51:07.205Z,1024.05
2023-02-05T03:52:07.174Z,1024.04
2023-02-05T03:53:07.162Z,1023.96
2023-02-05T03:54:07.158Z,1023.90
2023-02-05T03:55:07.165Z,1023.86
2023-02-05T03:56:12.149Z,1023.90
2023-02-05T03:57:07.128Z,1023.73
2023-02-05T03:58:07.101Z,1023.84
2023-02-05T03:59:07.173Z,1023.89
2023-02-05T04:00:07.095Z,1023.81
2023-02-05T04:01:07.127Z,1023.85
2023-02-05T04:02:07.152Z,1023.91
2023-02-05T04:03:07.052Z,1023.90
2023-02-05T04:04:07.034Z,1023.88
2023-02-05T04:05:07.027Z,1023.82
2023-02-05T04:06:07.080Z,1023.92
2023-02-05T04:07:12.030Z,1023.93
2023-02-05T04:08:06.989Z,1023.96
2023-02-05T04:09:06.982Z,1023.96
2023-02-05T04:10:06.983Z,1023.93
2023-02-05T04:11:06.974Z,1023.88
2023-02-05T04:12:06.942Z,1023.84
2023-02-05T04:13:06.941Z,1023.86
2023-02-05T04:14:06.924Z,1023.92
2023-02-05T04:15:06.912Z,1023.87
2023-02-05T04:16:06.939Z,1023.87
2023-02-05T04:17:06.887Z,1023.87
2023-02-05T04:18:11.895Z,1023.93
2023-02-05T04:19:06.880Z,1023.93
2023-02-05T04:20:06.854Z,1023.85
2023-02-05T04:21:06.858Z,1023.89
2023-02-05T04:22:06.847Z,1023.90
2023-02-05T04:23:06.820Z,1023.98
2023-02-05T04:24:06.831Z,1023.99
2023-02-05T04:25:06.807Z,1023.98
2023-02-05T04:26:06.792Z,1024.06
2023-02-05T04:27:06.796Z,1024.07
2023-02-05T04:28:06.829Z,1024.07
2023-02-05T04:29:11.780Z,1024.03
2023-02-05T04:30:06.748Z,1024.01
2023-02-05T04:31:06.801Z,1024.01
2023-02-05T04:32:06.735Z,1024.05
2023-02-05T04:33:06.719Z,1024.12
2023-02-05T04:34:06.704Z,1024.19
2023-02-05T04:35:06.698Z,1024.15
2023-02-05T04:36:06.682Z,1024.16
2023-02-05T04:37:06.689Z,1024.17
2023-02-05T04:38:06.686Z,1024.22
2023-02-05T04:39:06.649Z,1024.20
2023-02-05T04:40:11.658Z,1024.13
2023-02-05T04:41:06.718Z,1024.17
2023-02-05T04:42:06.687Z,1024.16
2023-02-05T04:43:06.615Z,1024.11
2023-02-05T04:44:06.691Z,1024.18
2023-02-05T04:45:06.588Z,1024.13
2023-02-05T04:46:06.670Z,1024.11
2023-02-05T04:47:06.583Z,1024.10
2023-02-05T04:48:06.613Z,1024.12
2023-02-05T04:49:06.553Z,1024.10
2023-02-05T04:50:06.525Z,1024.08
2023-02-05T04:51:11.537Z,1024.15
2023-02-05T04:52:06.515Z,1024.10
2023-02-05T04:53:06.495Z,1024.06
2023-02-05T04:54:06.514Z,1024.15
2023-02-05T04:55:06.474Z,1024.09
2023-02-05T04:56:06.482Z,1024.11
2023-02-05T04:57:06.452Z,1024.05
2023-02-05T04:58:06.447Z,1024.04
2023-02-05T04:59:06.429Z,1024.16
2023-02-05T05:00:06.423Z,1024.07
2023-02-05T05:01:06.443Z,1024.12
2023-02-05T05:02:11.458Z,1024.12
2023-02-05T05:03:06.418Z,1024.12
2023-02-05T05:04:06.370Z,1024.24
2023-02-05T05:05:06.369Z,1024.18
2023-02-05T05:06:06.363Z,1024.20
2023-02-05T05:07:06.349Z,1024.13
2023-02-05T05:08:06.340Z,1024.11
2023-02-05T05:09:06.317Z,1024.12
2023-02-05T05:10:06.339Z,1024.14
2023-02-05T05:11:06.312Z,1024.04
2023-02-05T05:12:06.284Z,1024.02
2023-02-05T05:13:11.332Z,1024.01
2023-02-05T05:14:06.261Z,1023.97
2023-02-05T05:15:06.256Z,1023.98
2023-02-05T05:16:06.282Z,1023.99
2023-02-05T05:17:06.231Z,1024.00
2023-02-05T05:18:06.226Z,1023.99
2023-02-05T05:19:06.211Z,1023.93
2023-02-05T05:20:06.206Z,1023.86
2023-02-05T05:21:06.205Z,1023.93
2023-02-05T05:22:06.171Z,1023.92
2023-02-05T05:23:06.178Z,1023.95
2023-02-05T05:24:11.175Z,1023.98
2023-02-05T05:25:06.147Z,1023.90
2023-02-05T05:26:06.152Z,1023.94
2023-02-05T05:27:06.119Z,1023.95
2023-02-05T05:28:06.180Z,1023.89
2023-02-05T05:29:06.105Z,1023.89
2023-02-05T05:30:06.108Z,1023.91
2023-02-05T05:31:06.172Z,1023.91
2023-02-05T05:32:06.107Z,1023.90
2023-02-05T05:33:06.062Z,1023.95
2023-02-05T05:34:06.044Z,1023.94
2023-02-05T05:35:11.050Z,1023.92
2023-02-05T05:36:06.031Z,1023.89
2023-02-05T05:37:06.009Z,1023.92
2023-02-05T05:38:06.014Z,1023.90
2023-02-05T05:39:05.990Z,1023.88
2023-02-05T05:40:05.977Z,1023.85
2023-02-05T05:41:05.968Z,1023.94
2023-02-05T05:42:05.975Z,1023.95
2023-02-05T05:43:05.970Z,1024.05
2023-02-05T05:44:05.932Z,1024.05
2023-02-05T05:45:05.923Z,1024.02
2023-02-05T05:46:11.069Z,1024.03
2023-02-05T05:47:05.924Z,1024.03
2023-02-05T05:48:05.892Z,1024.04
2023-02-05T05:49:05.892Z,1023.95
2023-02-05T05:50:05.874Z,1023.99
2023-02-05T05:51:05.870Z,1024.05
2023-02-05T05:52:05.843Z,1023.98
2023-02-05T05:53:05.839Z,1023.98
2023-02-05T05:54:05.840Z,1023.97
2023-02-05T05:55:05.809Z,1024.00
2023-02-05T05:56:05.794Z,1023.95
2023-02-05T05:57:10.838Z,1023.92
2023-02-05T05:58:07.028Z,1024.01
2023-02-05T05:59:05.778Z,1023.91
2023-02-05T06:00:05.755Z,1023.98
2023-02-05T06:01:05.754Z,1023.92
2023-02-05T06:02:05.725Z,1023.93
2023-02-05T06:03:05.717Z,1023.83
2023-02-05T06:04:05.727Z,1023.87
2023-02-05T06:05:05.691Z,1023.83
2023-02-05T06:06:05.683Z,1023.84
2023-02-05T06:07:05.670Z,1023.84
2023-02-05T06:08:10.687Z,1023.82
2023-02-05T06:09:05.677Z,1023.89
2023-02-05T06:10:05.641Z,1023.89
2023-02-05T06:11:05.636Z,1023.86
2023-02-05T06:12:05.618Z,1023.93
2023-02-05T06:13:05.620Z,1023.87
2023-02-05T06:14:05.619Z,1023.85
2023-02-05T06:15:05.581Z,1023.84
2023-02-05T06:16:05.645Z,1023.81
2023-02-05T06:17:05.579Z,1023.87
2023-02-05T06:18:05.556Z,1023.89
2023-02-05T06:19:10.596Z,1023.90
2023-02-05T06:20:05.526Z,1023.93
2023-02-05T06:21:05.525Z,1023.94
2023-02-05T06:22:05.512Z,1023.98
2023-02-05T06:23:05.522Z,1024.03
2023-02-05T06:24:05.492Z,1024.03
2023-02-05T06:25:05.469Z,1024.02
2023-02-05T06:26:05.456Z,1024.07
2023-02-05T06:27:05.448Z,1024.08
2023-02-05T06:28:05.476Z,1024.07
2023-02-05T06:29:05.467Z,1024.03
2023-02-05T06:30:10.440Z,1024.08
2023-02-05T06:31:05.526Z,1024.07
2023-02-05T06:32:05.409Z,1024.06
2023-02-05T06:33:05.391Z,1024.06
2023-02-05T06:34:05.394Z,1024.09
2023-02-05T06:35:05.366Z,1024.11
2023-02-05T06:36:05.357Z,1024.14
2023-02-05T06:37:05.337Z,1024.13
2023-02-05T06:38:05.323Z,1024.11
2023-02-05T06:39:05.326Z,1024.10
2023-02-05T06:40:05.337Z,1024.16
2023-02-05T06:41:10.315Z,1024.12
2023-02-05T06:42:05.280Z,1024.08
2023-02-05T06:43:05.270Z,1024.13
2023-02-05T06:44:05.295Z,1024.04
2023-02-05T06:45:05.287Z,1024.03
2023-02-05T06:46:05.317Z,1023.99
2023-02-05T06:47:05.235Z,1024.00
2023-02-05T06:48:05.213Z,1024.05
2023-02-05T06:49:05.217Z,1024.01
2023-02-05T06:50:05.218Z,1024.01
2023-02-05T06:51:05.182Z,1024.04
2023-02-05T06:52:10.200Z,1024.02
2023-02-05T06:53:05.162Z,1024.10
2023-02-05T06:54:05.153Z,1024.02
2023-02-05T06:55:05.152Z,1024.06
2023-02-05T06:56:05.124Z,1023.95
2023-02-05T06:57:05.124Z,1023.92
2023-02-05T06:58:05.108Z,1023.81
2023-02-05T06:59:05.096Z,1023.77
2023-02-05T07:00:05.118Z,1023.75
2023-02-05T07:01:05.124Z,1023.80
2023-02-05T07:02:05.066Z,1023.74
2023-02-05T07:03:10.081Z,1023.80
2023-02-05T07:04:05.077Z,1023.75
2023-02-05T07:05:05.047Z,1023.72
2023-02-05T07:06:05.029Z,1023.74
2023-02-05T07:07:05.008Z,1023.71
2023-02-05T07:08:04.996Z,1023.68
2023-02-05T07:09:05.003Z,1023.69
2023-02-05T07:10:04.988Z,1023.77
2023-02-05T07:11:04.975Z,1023.77
2023-02-05T07:12:04.952Z,1023.77
2023-02-05T07:13:06.025Z,1023.75
2023-02-05T07:14:09.955Z,1023.77
2023-02-05T07:15:04.937Z,1023.78
2023-02-05T07:16:04.986Z,1023.83
2023-02-05T07:17:04.974Z,1023.90
2023-02-05T07:18:04.970Z,1023.92
2023-02-05T07:19:04.881Z,1023.88
2023-02-05T07:20:04.883Z,1023.86
2023-02-05T07:21:04.858Z,1023.89
2023-02-05T07:22:04.845Z,1023.87
2023-02-05T07:23:04.835Z,1023.86
2023-02-05T07:24:04.849Z,1023.90
2023-02-05T07:25:09.844Z,1023.90
2023-02-05T07:26:04.798Z,1023.94
2023-02-05T07:27:04.792Z,1023.93
2023-02-05T07:28:04.811Z,1023.91
2023-02-05T07:29:04.766Z,1023.84
2023-02-05T07:30:04.762Z,1023.88
2023-02-05T07:31:04.844Z,1023.86
2023-02-05T07:32:04.749Z,1023.87
2023-02-05T07:33:04.780Z,1023.81
2023-02-05T07:34:04.725Z,1023.81
2023-02-05T07:35:04.716Z,1023.80
2023-02-05T07:36:09.709Z,1023.81
2023-02-05T07:37:04.688Z,1023.85
2023-02-05T07:38:04.665Z,1023.76
2023-02-05T07:39:04.653Z,1023.78
2023-02-05T07:40:04.654Z,1023.77
2023-02-05T07:41:04.650Z,1023.79
2023-02-05T07:42:04.663Z,1023.77
2023-02-05T07:43:04.611Z,1023.63
2023-02-05T07:44:04.593Z,1023.72
2023-02-05T07:45:04.603Z,1023.72
2023-02-05T07:46:04.570Z,1023.76
2023-02-05T07:47:09.595Z,1023.74
2023-02-05T07:48:04.547Z,1023.73
2023-02-05T07:49:04.563Z,1023.69
2023-02-05T07:50:04.562Z,1023.68
2023-02-05T07:51:04.514Z,1023.63
2023-02-05T07:52:04.513Z,1023.63
2023-02-05T07:53:04.536Z,1023.74
2023-02-05T07:54:04.490Z,1023.62
2023-02-05T07:55:04.510Z,1023.60
2023-02-05T07:56:04.495Z,1023.67
2023-02-05T07:57:06.859Z,1023.70
2023-02-05T07:58:09.460Z,1023.61
2023-02-05T07:59:04.466Z,1023.61
2023-02-05T08:00:04.433Z,1023.65
2023-02-05T08:01:04.411Z,1023.61
2023-02-05T08:02:04.422Z,1023.61
2023-02-05T08:03:04.381Z,1023.61
2023-02-05T08:04:04.517Z,1023.61
2023-02-05T08:05:04.386Z,1023.47
2023-02-05T08:06:04.350Z,1023.45
2023-02-05T08:07:04.333Z,1023.49
2023-02-05T08:08:04.323Z,1023.57
2023-02-05T08:09:09.343Z,1023.50
2023-02-05T08:10:04.321Z,1023.49
2023-02-05T08:11:04.304Z,1023.53
2023-02-05T08:12:04.302Z,1023.52
2023-02-05T08:13:04.269Z,1023.54
2023-02-05T08:14:04.258Z,1023.50
2023-02-05T08:15:04.258Z,1023.49
2023-02-05T08:16:04.292Z,1023.51
2023-02-05T08:17:04.249Z,1023.46
2023-02-05T08:18:04.230Z,1023.45
2023-02-05T08:19:04.211Z,1023.46
2023-02-05T08:20:09.241Z,1023.40
2023-02-05T08:21:04.216Z,1023.41
2023-02-05T08:22:04.210Z,1023.42
2023-02-05T08:23:04.164Z,1023.40
2023-02-05T08:24:04.168Z,1023.43
2023-02-05T08:25:04.147Z,1023.51
2023-02-05T08:26:04.132Z,1023.48
2023-02-05T08:27:04.126Z,1023.53
2023-02-05T08:28:04.224Z,1023.52
2023-02-05T08:29:04.103Z,1023.49
2023-02-05T08:30:04.104Z,1023.50
2023-02-05T08:31:09.112Z,1023.49
2023-02-05T08:32:04.078Z,1023.45
2023-02-05T08:33:04.050Z,1023.42
2023-02-05T08:34:04.038Z,1023.46
2023-02-05T08:35:04.037Z,1023.41
2023-02-05T08:36:04.037Z,1023.40
2023-02-05T08:37:04.006Z,1023.36
2023-02-05T08:38:04.066Z,1023.40
2023-02-05T08:39:03.992Z,1023.40
2023-02-05T08:40:04.003Z,1023.26
2023-02-05T08:41:03.968Z,1023.28
2023-02-05T08:42:08.994Z,1023.29
2023-02-05T08:43:03.945Z,1023.27
2023-02-05T08:44:03.934Z,1023.23
2023-02-05T08:45:03.930Z,1023.29
2023-02-05T08:46:03.963Z,1023.22
2023-02-05T08:47:03.922Z,1023.24
2023-02-05T08:48:03.883Z,1023.22
2023-02-05T08:49:03.876Z,1023.21
2023-02-05T08:50:03.888Z,1023.23
2023-02-05T08:51:03.959Z,1023.21
2023-02-05T08:52:03.919Z,1023.15
2023-02-05T08:53:08.858Z,1023.15
2023-02-05T08:54:03.819Z,1023.17
2023-02-05T08:55:03.815Z,1023.18
2023-02-05T08:56:03.792Z,1023.14
2023-02-05T08:57:03.780Z,1023.10
2023-02-05T08:58:03.770Z,1023.08
2023-02-05T08:59:03.759Z,1023.06
2023-02-05T09:00:03.778Z,1023.13
2023-02-05T09:01:03.777Z,1023.19
2023-02-05T09:02:03.727Z,1023.12
2023-02-05T09:03:03.715Z,1023.10
2023-02-05T09:04:08.835Z,1023.07
2023-02-05T09:05:08.983Z,1023.08
2023-02-05T09:06:04.700Z,1023.02
2023-02-05T09:07:03.674Z,1023.07
2023-02-05T09:08:03.694Z,1023.09
2023-02-05T09:09:03.665Z,1023.04
2023-02-05T09:10:03.641Z,1023.05
2023-02-05T09:11:03.644Z,1023.01
2023-02-05T09:12:03.631Z,1023.02
2023-02-05T09:13:03.616Z,1023.03
2023-02-05T09:14:03.596Z,1022.95
2023-02-05T09:15:08.614Z,1022.93
2023-02-05T09:16:03.612Z,1022.95
2023-02-05T09:17:03.571Z,1022.99
2023-02-05T09:18:03.588Z,1022.98
2023-02-05T09:19:03.542Z,1022.98
2023-02-05T09:20:03.528Z,1022.96
2023-02-05T09:21:03.528Z,1022.95
2023-02-05T09:22:03.542Z,1022.97
2023-02-05T09:23:03.501Z,1022.89
2023-02-05T09:24:03.520Z,1022.96
2023-02-05T09:25:03.493Z,1022.97
2023-02-05T09:26:08.542Z,1022.92
2023-02-05T09:27:05.206Z,1022.96
2023-02-05T09:28:03.515Z,1023.06
2023-02-05T09:29:03.443Z,1023.00
2023-02-05T09:30:03.426Z,1023.01
2023-02-05T09:31:03.494Z,1023.01
2023-02-05T09:32:03.423Z,1023.02
2023-02-05T09:33:03.391Z,1022.91
2023-02-05T09:34:03.380Z,1023.00
2023-02-05T09:35:03.398Z,1022.95
2023-02-05T09:36:03.367Z,1022.94
2023-02-05T09:37:08.378Z,1022.92
2023-02-05T09:38:03.372Z,1023.01
2023-02-05T09:39:14.136Z,1022.99
2023-02-05T09:40:21.459Z,1023.05
2023-02-05T09:41:04.318Z,1023.05
2023-02-05T09:42:03.289Z,1023.00
2023-02-05T09:43:03.290Z,1023.03
2023-02-05T09:44:03.294Z,1023.01
2023-02-05T09:45:03.261Z,1023.02
2023-02-05T09:46:03.301Z,1022.95
2023-02-05T09:47:03.231Z,1022.97
2023-02-05T09:48:08.259Z,1022.99
2023-02-05T09:49:03.212Z,1023.03
2023-02-05T09:50:03.249Z,1023.01
2023-02-05T09:51:03.223Z,1023.01
2023-02-05T09:52:03.187Z,1022.99
2023-02-05T09:53:03.193Z,1022.94
2023-02-05T09:54:03.214Z,1022.99
2023-02-05T09:55:03.149Z,1022.96
2023-02-05T09:56:03.234Z,1022.93
2023-02-05T09:57:03.159Z,1022.94
2023-02-05T09:58:03.164Z,1022.91
2023-02-05T09:59:08.121Z,1022.97
2023-02-05T10:00:03.097Z,1022.98
2023-02-05T10:01:03.171Z,1022.98
2023-02-05T10:02:05.635Z,1022.97
2023-02-05T10:03:03.051Z,1022.96
2023-02-05T10:04:03.107Z,1022.99
2023-02-05T10:05:03.044Z,1022.92
2023-02-05T10:06:03.031Z,1022.90
2023-02-05T10:07:03.005Z,1022.82
2023-02-05T10:08:02.997Z,1022.82
2023-02-05T10:09:03.001Z,1022.78
2023-02-05T10:10:08.006Z,1022.88
2023-02-05T10:11:02.970Z,1022.91
2023-02-05T10:12:02.986Z,1022.97
2023-02-05T10:13:02.959Z,1022.97
2023-02-05T10:14:02.929Z,1022.95
2023-02-05T10:15:02.929Z,1022.89
2023-02-05T10:16:03.023Z,1022.92
2023-02-05T10:17:02.913Z,1022.96
2023-02-05T10:18:02.884Z,1022.88
2023-02-05T10:19:02.880Z,1022.86
2023-02-05T10:20:02.869Z,1022.83
2023-02-05T10:21:07.998Z,1022.76
2023-02-05T10:22:02.882Z,1022.70
2023-02-05T10:23:02.845Z,1022.68
2023-02-05T10:24:02.831Z,1022.60
2023-02-05T10:25:02.824Z,1022.63
2023-02-05T10:26:02.809Z,1022.52
2023-02-05T10:27:02.808Z,1022.54
2023-02-05T10:28:02.848Z,1022.48
2023-02-05T10:29:02.772Z,1022.53
2023-02-05T10:30:02.768Z,1022.50
2023-02-05T10:31:02.961Z,1022.47
2023-02-05T10:32:07.776Z,1022.46
2023-02-05T10:33:02.727Z,1022.53
2023-02-05T10:34:02.711Z,1022.50
2023-02-05T10:35:02.701Z,1022.54
2023-02-05T10:36:02.705Z,1022.53
2023-02-05T10:37:02.701Z,1022.52
2023-02-05T10:38:03.878Z,1022.48
2023-02-05T10:39:02.664Z,1022.50
2023-02-05T10:40:02.652Z,1022.56
2023-02-05T10:41:02.639Z,1022.55
2023-02-05T10:42:02.647Z,1022.53
2023-02-05T10:43:07.741Z,1022.52
2023-02-05T10:44:02.600Z,1022.54
2023-02-05T10:45:02.624Z,1022.53
2023-02-05T10:46:02.628Z,1022.46
2023-02-05T10:47:02.576Z,1022.42
2023-02-05T10:48:02.560Z,1022.45
2023-02-05T10:49:02.550Z,1022.42
2023-02-05T10:50:02.558Z,1022.36
2023-02-05T10:51:02.522Z,1022.37
2023-02-05T10:52:02.577Z,1022.31
2023-02-05T10:53:02.503Z,1022.34
2023-02-05T10:54:07.566Z,1022.35
2023-02-05T10:55:02.482Z,1022.34
2023-02-05T10:56:02.467Z,1022.36
2023-02-05T10:57:02.462Z,1022.32
2023-02-05T10:58:02.461Z,1022.34
2023-02-05T10:59:02.464Z,1022.36
2023-02-05T11:00:02.494Z,1022.30
2023-02-05T11:01:02.444Z,1022.33
2023-02-05T11:02:02.440Z,1022.33
2023-02-05T11:03:02.458Z,1022.15
2023-02-05T11:04:02.387Z,1022.17
2023-02-05T11:05:07.390Z,1022.22
2023-02-05T11:06:02.360Z,1022.15
2023-02-05T11:07:02.344Z,1022.22
2023-02-05T11:08:02.347Z,1022.16
2023-02-05T11:09:02.321Z,1022.27
2023-02-05T11:10:02.314Z,1022.24
2023-02-05T11:11:02.304Z,1022.14
2023-02-05T11:12:02.295Z,1022.25
2023-02-05T11:13:02.295Z,1022.24
2023-02-05T11:14:02.272Z,1022.24
2023-02-05T11:15:02.291Z,1022.18
2023-02-05T11:16:07.282Z,1022.16
2023-02-05T11:17:02.252Z,1022.11
2023-02-05T11:18:02.242Z,1022.16
2023-02-05T11:19:02.227Z,1022.18
2023-02-05T11:20:02.200Z,1022.16
2023-02-05T11:21:02.196Z,1022.12
2023-02-05T11:22:02.179Z,1022.09
2023-02-05T11:23:02.184Z,1022.08
2023-02-05T11:24:02.169Z,1022.08
2023-02-05T11:25:02.144Z,1022.02
2023-02-05T11:26:02.132Z,1022.02
2023-02-05T11:27:07.166Z,1022.03
2023-02-05T11:28:02.244Z,1021.96
2023-02-05T11:29:02.102Z,1021.93
2023-02-05T11:30:02.092Z,1021.90
2023-02-05T11:31:02.181Z,1021.81
2023-02-05T11:32:02.123Z,1021.91
2023-02-05T11:33:02.049Z,1021.88
2023-02-05T11:34:02.051Z,1021.94
2023-02-05T11:35:02.033Z,1021.89
2023-02-05T11:36:02.023Z,1021.92
2023-02-05T11:37:02.007Z,1021.91
2023-02-05T11:38:07.028Z,1021.92
2023-02-05T11:39:01.999Z,1021.90
2023-02-05T11:40:02.000Z,1021.90
2023-02-05T11:41:01.963Z,1021.85
2023-02-05T11:42:01.962Z,1021.83
2023-02-05T11:43:01.939Z,1021.90
2023-02-05T11:44:01.963Z,1021.87
2023-02-05T11:45:01.920Z,1021.89
2023-02-05T11:46:02.014Z,1021.89
2023-02-05T11:47:01.929Z,1021.89
2023-02-05T11:48:01.895Z,1021.84
2023-02-05T11:49:06.923Z,1021.86
2023-02-05T11:50:01.879Z,1021.91
2023-02-05T11:51:01.876Z,1021.79
2023-02-05T11:52:01.856Z,1021.85
2023-02-05T11:53:01.861Z,1021.89
2023-02-05T11:54:01.857Z,1021.82
2023-02-05T11:55:01.815Z,1021.82
2023-02-05T11:56:01.808Z,1021.83
2023-02-05T11:57:01.828Z,1021.77
2023-02-05T11:58:01.782Z,1021.77
2023-02-05T11:59:01.783Z,1021.76
2023-02-05T12:00:06.781Z,1021.77
2023-02-05T12:01:01.743Z,1021.79
2023-02-05T12:02:01.758Z,1021.80
2023-02-05T12:03:01.800Z,1021.73
2023-02-05T12:04:01.731Z,1021.81
2023-02-05T12:05:01.700Z,1021.75
2023-02-05T12:06:01.692Z,1021.79
2023-02-05T12:07:01.683Z,1021.74
2023-02-05T12:08:01.675Z,1021.73
2023-02-05T12:09:01.697Z,1021.69
2023-02-05T12:10:01.655Z,1021.68